createdAt,value
2023-03-23T16:00:51.122Z,5.72
2023-03-23T16:06:03.510Z,5.40
2023-03-23T16:11:13.689Z,6.68
2023-03-23T16:16:26.590Z,6.80
2023-03-23T16:21:33.687Z,7.03
2023-03-23T16:26:42.590Z,6.68
2023-03-23T16:31:49.660Z,6.68
2023-03-23T16:36:56.598Z,6.88
2023-03-23T16:42:04.713Z,6.55
2023-03-23T16:47:11.247Z,8.50
2023-03-23T16:52:18.050Z,8.85
2023-03-23T16:57:26.680Z,8.50
2023-03-23T17:02:33.527Z,9.43
2023-03-23T17:07:41.267Z,11.10
2023-03-23T17:12:49.407Z,7.18
2023-03-23T17:17:56.746Z,9.82
2023-03-23T17:23:04.885Z,10.20
2023-03-23T17:28:14.001Z,6.88
2023-03-23T17:33:21.040Z,9.00
2023-03-23T17:38:28.139Z,9.88
2023-03-23T17:43:38.176Z,8.05
2023-03-23T17:48:46.515Z,8.57
2023-03-23T17:53:58.036Z,7.60
2023-03-23T17:59:08.804Z,11.45
2023-03-23T18:04:18.601Z,11.88
2023-03-23T18:09:30.829Z,22.35
2023-03-23T18:14:42.075Z,23.33
2023-03-23T18:19:50.307Z,32.47
2023-03-23T18:24:59.676Z,32.28
2023-03-23T18:30:13.143Z,29.38
2023-03-23T18:35:28.082Z,17.33
2023-03-23T18:40:38.754Z,14.27
2023-03-23T18:45:54.270Z,12.75
2023-03-23T18:51:10.095Z,10.82
2023-03-23T18:56:20.587Z,8.23
2023-03-23T19:01:32.190Z,11.20
2023-03-23T19:06:43.040Z,7.70
2023-03-23T19:11:53.555Z,10.63
2023-03-23T19:17:07.832Z,11.05
2023-03-23T19:22:17.752Z,8.20
2023-03-23T19:27:28.640Z,8.43
2023-03-23T19:32:40.880Z,8.57
2023-03-23T19:37:51.897Z,7.25
2023-03-23T19:43:05.463Z,10.73
2023-03-23T19:48:18.169Z,8.52
2023-03-23T19:53:39.289Z,9.48
2023-03-23T19:58:51.925Z,12.48
2023-03-23T20:04:07.701Z,9.07
2023-03-23T20:09:21.748Z,8.77
2023-03-23T20:14:32.243Z,10.68
2023-03-23T20:19:45.190Z,9.45
2023-03-23T20:24:54.861Z,6.45
2023-03-23T20:30:06.236Z,9.13
2023-03-23T20:35:23.357Z,5.85
2023-03-23T20:40:32.482Z,5.18
2023-03-23T20:45:44.924Z,6.75
2023-03-23T20:50:55.379Z,6.38
2023-03-23T20:56:07.628Z,11.73
2023-03-23T21:01:22.440Z,6.63
2023-03-23T21:06:34.388Z,3.58
2023-03-23T21:11:43.076Z,4.85
2023-03-23T21:16:52.494Z,5.15
2023-03-23T21:22:02.894Z,3.72
2023-03-23T21:27:09.523Z,4.43
2023-03-23T21:32:16.958Z,4.00
2023-03-23T21:37:25.005Z,4.90
2023-03-23T21:42:31.836Z,3.80
2023-03-23T21:47:39.665Z,3.88
2023-03-23T21:52:51.248Z,6.93
2023-03-23T21:57:58.412Z,6.47
2023-03-23T22:03:05.448Z,4.90
2023-03-23T22:08:14.944Z,9.68
2023-03-23T22:13:21.560Z,7.07
2023-03-23T22:18:28.624Z,4.57
2023-03-23T22:23:37.121Z,6.35
2023-03-23T22:28:43.870Z,6.47
2023-03-23T22:33:54.446Z,6.35
2023-03-23T22:39:04.011Z,5.38
2023-03-23T22:44:15.614Z,6.30
2023-03-23T22:49:22.261Z,7.30
2023-03-23T22:54:31.076Z,7.53
2023-03-23T22:59:37.644Z,9.00
2023-03-23T23:04:44.384Z,8.75
2023-03-23T23:09:52.455Z,7.47
2023-03-23T23:14:59.460Z,9.40
2023-03-23T23:20:07.199Z,6.63
2023-03-23T23:25:15.014Z,6.82
2023-03-23T23:30:21.586Z,6.43
2023-03-23T23:35:28.784Z,8.35
2023-03-23T23:40:36.769Z,7.18
2023-03-23T23:45:43.594Z,6.13
2023-03-23T23:50:52.535Z,8.15
2023-03-23T23:56:03.955Z,5.80
